sensor_id;sensor_type;location;lat;lon;timestamp;pressure;altitude;pressure_sealevel;temperature;humidity
65997;BME280;52765;52.258;21.052;2023-03-20T00:01:17;100591.63;;;8.58;54.38
65997;BME280;52765;52.258;21.052;2023-03-20T00:03:43;100589.47;;;8.51;54.76
65997;BME280;52765;52.258;21.052;2023-03-20T00:06:22;100588.75;;;8.49;54.85
65997;BME280;52765;52.258;21.052;2023-03-20T00:08:50;100591.00;;;8.44;55.04
65997;BME280;52765;52.258;21.052;2023-03-20T00:13:54;100587.25;;;8.36;55.04
65997;BME280;52765;52.258;21.052;2023-03-20T00:16:22;100585.84;;;8.31;55.18
65997;BME280;52765;52.258;21.052;2023-03-20T00:18:49;100582.72;;;8.26;55.75
65997;BME280;52765;52.258;21.052;2023-03-20T00:21:16;100581.00;;;8.25;55.63
65997;BME280;52765;52.258;21.052;2023-03-20T00:23:42;100582.00;;;8.24;55.82
65997;BME280;52765;52.258;21.052;2023-03-20T00:26:12;100571.81;;;8.18;56.33
65997;BME280;52765;52.258;21.052;2023-03-20T00:28:41;100582.69;;;8.17;55.95
65997;BME280;52765;52.258;21.052;2023-03-20T00:31:28;100577.59;;;8.13;56.30
65997;BME280;52765;52.258;21.052;2023-03-20T00:33:57;100579.44;;;8.13;56.51
65997;BME280;52765;52.258;21.052;2023-03-20T00:36:23;100579.56;;;8.11;56.32
65997;BME280;52765;52.258;21.052;2023-03-20T00:38:49;100575.03;;;8.12;56.58
65997;BME280;52765;52.258;21.052;2023-03-20T00:41:32;100569.53;;;8.13;56.61
65997;BME280;52765;52.258;21.052;2023-03-20T00:44:14;100562.75;;;8.09;57.05
65997;BME280;52765;52.258;21.052;2023-03-20T00:46:44;100560.59;;;8.03;56.84
65997;BME280;52765;52.258;21.052;2023-03-20T00:49:10;100564.25;;;8.02;57.41
65997;BME280;52765;52.258;21.052;2023-03-20T00:51:36;100562.84;;;7.98;57.47
65997;BME280;52765;52.258;21.052;2023-03-20T00:54:09;100562.13;;;7.96;57.35
65997;BME280;52765;52.258;21.052;2023-03-20T00:59:27;100558.41;;;7.87;57.63
65997;BME280;52765;52.258;21.052;2023-03-20T01:01:54;100559.69;;;7.83;57.81
65997;BME280;52765;52.258;21.052;2023-03-20T01:04:20;100559.09;;;7.80;58.02
65997;BME280;52765;52.258;21.052;2023-03-20T01:06:46;100556.56;;;7.78;58.54
65997;BME280;52765;52.258;21.052;2023-03-20T01:09:12;100558.50;;;7.76;58.53
65997;BME280;52765;52.258;21.052;2023-03-20T01:11:38;100552.56;;;7.72;58.63
65997;BME280;52765;52.258;21.052;2023-03-20T01:14:11;100560.59;;;7.72;58.74
65997;BME280;52765;52.258;21.052;2023-03-20T01:16:37;100560.72;;;7.71;58.99
65997;BME280;52765;52.258;21.052;2023-03-20T01:19:02;100557.34;;;7.69;58.85
65997;BME280;52765;52.258;21.052;2023-03-20T01:21:28;100556.50;;;7.68;59.36
65997;BME280;52765;52.258;21.052;2023-03-20T01:23:53;100552.22;;;7.66;59.38
65997;BME280;52765;52.258;21.052;2023-03-20T01:26:22;100552.38;;;7.64;59.39
65997;BME280;52765;52.258;21.052;2023-03-20T01:28:49;100550.09;;;7.59;59.70
65997;BME280;52765;52.258;21.052;2023-03-20T01:31:16;100556.69;;;7.55;59.59
65997;BME280;52765;52.258;21.052;2023-03-20T01:33:42;100552.59;;;7.51;59.85
65997;BME280;52765;52.258;21.052;2023-03-20T01:36:11;100549.91;;;7.51;60.02
65997;BME280;52765;52.258;21.052;2023-03-20T01:38:39;100544.50;;;7.41;60.27
65997;BME280;52765;52.258;21.052;2023-03-20T01:41:15;100555.78;;;7.45;60.61
65997;BME280;52765;52.258;21.052;2023-03-20T01:43:43;100547.03;;;7.43;60.73
65997;BME280;52765;52.258;21.052;2023-03-20T01:46:28;100554.34;;;7.41;60.85
65997;BME280;52765;52.258;21.052;2023-03-20T01:48:58;100547.44;;;7.38;61.05
65997;BME280;52765;52.258;21.052;2023-03-20T01:51:29;100543.03;;;7.37;61.10
65997;BME280;52765;52.258;21.052;2023-03-20T01:57:14;100537.63;;;7.28;61.65
65997;BME280;52765;52.258;21.052;2023-03-20T01:59:46;100538.88;;;7.23;61.51
65997;BME280;52765;52.258;21.052;2023-03-20T02:02:18;100543.25;;;7.25;61.41
65997;BME280;52765;52.258;21.052;2023-03-20T02:04:47;100540.13;;;7.19;61.51
65997;BME280;52765;52.258;21.052;2023-03-20T02:07:17;100529.53;;;7.18;61.96
65997;BME280;52765;52.258;21.052;2023-03-20T02:09:43;100528.78;;;7.16;62.36
65997;BME280;52765;52.258;21.052;2023-03-20T02:12:11;100525.66;;;7.11;62.51
65997;BME280;52765;52.258;21.052;2023-03-20T02:14:36;100527.50;;;7.10;62.54
65997;BME280;52765;52.258;21.052;2023-03-20T02:17:05;100526.19;;;7.04;62.87
65997;BME280;52765;52.258;21.052;2023-03-20T02:19:53;100526.44;;;7.01;63.17
65997;BME280;52765;52.258;21.052;2023-03-20T02:45:32;100515.28;;;6.96;64.70
65997;BME280;52765;52.258;21.052;2023-03-20T02:58:21;100518.72;;;6.87;65.47
65997;BME280;52765;52.258;21.052;2023-03-20T03:01:10;100509.13;;;6.84;65.54
65997;BME280;52765;52.258;21.052;2023-03-20T03:03:43;100503.16;;;6.81;65.78
65997;BME280;52765;52.258;21.052;2023-03-20T03:06:24;100509.13;;;6.84;65.68
65997;BME280;52765;52.258;21.052;2023-03-20T03:09:00;100510.09;;;6.83;65.71
65997;BME280;52765;52.258;21.052;2023-03-20T03:11:30;100509.38;;;6.81;65.96
65997;BME280;52765;52.258;21.052;2023-03-20T03:13:58;100506.97;;;6.78;66.15
65997;BME280;52765;52.258;21.052;2023-03-20T03:16:31;100508.06;;;6.76;66.63
65997;BME280;52765;52.258;21.052;2023-03-20T03:19:11;100508.19;;;6.74;66.76
65997;BME280;52765;52.258;21.052;2023-03-20T03:21:39;100516.50;;;6.71;67.06
65997;BME280;52765;52.258;21.052;2023-03-20T03:24:14;100510.41;;;6.69;67.41
65997;BME280;52765;52.258;21.052;2023-03-20T03:26:43;100514.31;;;6.65;67.99
65997;BME280;52765;52.258;21.052;2023-03-20T03:29:15;100508.13;;;6.64;67.88
65997;BME280;52765;52.258;21.052;2023-03-20T03:31:42;100521.63;;;6.63;67.96
65997;BME280;52765;52.258;21.052;2023-03-20T03:34:13;100506.66;;;6.60;68.36
65997;BME280;52765;52.258;21.052;2023-03-20T03:37:02;100503.63;;;6.65;68.02
65997;BME280;52765;52.258;21.052;2023-03-20T03:39:43;100510.19;;;6.61;68.25
65997;BME280;52765;52.258;21.052;2023-03-20T03:42:36;100501.19;;;6.62;68.16
65997;BME280;52765;52.258;21.052;2023-03-20T03:47:37;100493.53;;;6.57;68.72
65997;BME280;52765;52.258;21.052;2023-03-20T03:50:15;100494.53;;;6.56;68.70
65997;BME280;52765;52.258;21.052;2023-03-20T03:52:43;100493.66;;;6.56;68.34
65997;BME280;52765;52.258;21.052;2023-03-20T03:55:15;100492.94;;;6.54;68.92
65997;BME280;52765;52.258;21.052;2023-03-20T03:57:50;100498.28;;;6.54;68.91
65997;BME280;52765;52.258;21.052;2023-03-20T04:00:19;100487.13;;;6.48;69.06
65997;BME280;52765;52.258;21.052;2023-03-20T04:02:49;100502.22;;;6.50;69.28
65997;BME280;52765;52.258;21.052;2023-03-20T04:05:17;100496.13;;;6.47;69.48
65997;BME280;52765;52.258;21.052;2023-03-20T04:07:45;100484.56;;;6.47;69.90
65997;BME280;52765;52.258;21.052;2023-03-20T04:10:11;100487.63;;;6.42;69.81
65997;BME280;52765;52.258;21.052;2023-03-20T04:12:41;100491.28;;;6.41;70.36
65997;BME280;52765;52.258;21.052;2023-03-20T04:15:08;100492.25;;;6.40;70.38
65997;BME280;52765;52.258;21.052;2023-03-20T04:17:34;100489.56;;;6.40;70.25
65997;BME280;52765;52.258;21.052;2023-03-20T04:19:59;100488.88;;;6.38;70.59
65997;BME280;52765;52.258;21.052;2023-03-20T04:22:25;100489.00;;;6.37;70.65
65997;BME280;52765;52.258;21.052;2023-03-20T04:24:50;100490.81;;;6.36;70.33
65997;BME280;52765;52.258;21.052;2023-03-20T04:27:17;100481.09;;;6.35;70.81
65997;BME280;52765;52.258;21.052;2023-03-20T04:29:43;100486.44;;;6.35;70.74
65997;BME280;52765;52.258;21.052;2023-03-20T04:32:08;100495.44;;;6.34;71.14
65997;BME280;52765;52.258;21.052;2023-03-20T04:34:34;100500.91;;;6.33;70.97
65997;BME280;52765;52.258;21.052;2023-03-20T04:36:59;100495.84;;;6.29;71.17
65997;BME280;52765;52.258;21.052;2023-03-20T04:39:26;100492.28;;;6.29;71.36
65997;BME280;52765;52.258;21.052;2023-03-20T04:41:51;100502.75;;;6.32;71.63
65997;BME280;52765;52.258;21.052;2023-03-20T04:44:17;100507.00;;;6.35;71.58
65997;BME280;52765;52.258;21.052;2023-03-20T04:46:42;100498.97;;;6.35;71.33
65997;BME280;52765;52.258;21.052;2023-03-20T04:49:08;100495.44;;;6.34;71.84
65997;BME280;52765;52.258;21.052;2023-03-20T04:51:33;100500.78;;;6.34;71.87
65997;BME280;52765;52.258;21.052;2023-03-20T04:53:59;100497.38;;;6.32;72.08
65997;BME280;52765;52.258;21.052;2023-03-20T04:56:24;100500.06;;;6.32;72.02
65997;BME280;52765;52.258;21.052;2023-03-20T04:58:49;100501.91;;;6.32;72.65
65997;BME280;52765;52.258;21.052;2023-03-20T05:01:15;100503.56;;;6.33;72.56
65997;BME280;52765;52.258;21.052;2023-03-20T05:03:40;100502.75;;;6.32;72.48
65997;BME280;52765;52.258;21.052;2023-03-20T05:06:06;100497.97;;;6.36;72.54
65997;BME280;52765;52.258;21.052;2023-03-20T05:08:32;100500.03;;;6.43;71.98
65997;BME280;52765;52.258;21.052;2023-03-20T05:10:57;100489.81;;;6.37;72.00
65997;BME280;52765;52.258;21.052;2023-03-20T05:13:22;100499.03;;;6.44;72.15
65997;BME280;52765;52.258;21.052;2023-03-20T05:15:48;100496.25;;;6.46;72.13
65997;BME280;52765;52.258;21.052;2023-03-20T05:18:13;100493.56;;;6.46;72.35
65997;BME280;52765;52.258;21.052;2023-03-20T05:20:39;100491.88;;;6.45;72.20
65997;BME280;52765;52.258;21.052;2023-03-20T05:23:04;100495.75;;;6.52;71.76
65997;BME280;52765;52.258;21.052;2023-03-20T05:25:30;100500.00;;;6.55;71.69
65997;BME280;52765;52.258;21.052;2023-03-20T05:27:55;100498.03;;;6.57;71.81
65997;BME280;52765;52.258;21.052;2023-03-20T05:30:20;100504.69;;;6.62;71.65
65997;BME280;52765;52.258;21.052;2023-03-20T05:32:50;100507.00;;;6.67;71.48
65997;BME280;52765;52.258;21.052;2023-03-20T05:35:17;100505.91;;;6.70;71.41
65997;BME280;52765;52.258;21.052;2023-03-20T05:37:42;100515.97;;;6.77;71.17
65997;BME280;52765;52.258;21.052;2023-03-20T05:40:11;100513.38;;;6.87;70.35
65997;BME280;52765;52.258;21.052;2023-03-20T05:42:36;100507.75;;;6.90;69.80
65997;BME280;52765;52.258;21.052;2023-03-20T05:45:02;100509.19;;;6.94;69.54
65997;BME280;52765;52.258;21.052;2023-03-20T05:47:28;100495.22;;;6.91;69.47
65997;BME280;52765;52.258;21.052;2023-03-20T05:49:54;100499.78;;;7.00;69.35
65997;BME280;52765;52.258;21.052;2023-03-20T05:52:21;100512.94;;;7.03;68.83
65997;BME280;52765;52.258;21.052;2023-03-20T05:54:46;100512.53;;;7.08;69.00
65997;BME280;52765;52.258;21.052;2023-03-20T05:57:12;100510.16;;;7.14;68.94
65997;BME280;52765;52.258;21.052;2023-03-20T05:59:37;100513.59;;;7.16;68.22
65997;BME280;52765;52.258;21.052;2023-03-20T06:02:03;100498.47;;;7.15;68.49
65997;BME280;52765;52.258;21.052;2023-03-20T06:04:28;100501.50;;;7.22;68.49
65997;BME280;52765;52.258;21.052;2023-03-20T06:06:54;100505.19;;;7.31;68.01
65997;BME280;52765;52.258;21.052;2023-03-20T06:09:19;100503.09;;;7.34;67.93
65997;BME280;52765;52.258;21.052;2023-03-20T06:11:45;100505.25;;;7.40;67.80
65997;BME280;52765;52.258;21.052;2023-03-20T06:14:10;100512.38;;;7.51;67.32
65997;BME280;52765;52.258;21.052;2023-03-20T06:16:36;100507.91;;;7.62;66.74
65997;BME280;52765;52.258;21.052;2023-03-20T06:19:01;100508.81;;;7.72;65.84
65997;BME280;52765;52.258;21.052;2023-03-20T06:21:27;100507.13;;;7.81;65.31
65997;BME280;52765;52.258;21.052;2023-03-20T06:23:56;100509.41;;;7.85;64.53
65997;BME280;52765;52.258;21.052;2023-03-20T06:26:22;100511.00;;;7.97;64.15
65997;BME280;52765;52.258;21.052;2023-03-20T06:28:47;100514.88;;;8.05;63.77
65997;BME280;52765;52.258;21.052;2023-03-20T06:31:13;100514.91;;;8.14;63.66
65997;BME280;52765;52.258;21.052;2023-03-20T06:33:38;100509.25;;;8.27;63.27
65997;BME280;52765;52.258;21.052;2023-03-20T06:36:05;100512.53;;;8.41;62.59
65997;BME280;52765;52.258;21.052;2023-03-20T06:38:30;100511.75;;;8.60;62.15
65997;BME280;52765;52.258;21.052;2023-03-20T06:40:56;100517.84;;;8.72;61.26
65997;BME280;52765;52.258;21.052;2023-03-20T06:43:21;100512.59;;;8.80;61.23
65997;BME280;52765;52.258;21.052;2023-03-20T06:45:47;100521.09;;;8.85;60.71
65997;BME280;52765;52.258;21.052;2023-03-20T06:48:13;100517.72;;;8.93;60.76
65997;BME280;52765;52.258;21.052;2023-03-20T06:50:38;100520.34;;;9.02;60.36
65997;BME280;52765;52.258;21.052;2023-03-20T06:53:04;100508.63;;;9.13;60.33
65997;BME280;52765;52.258;21.052;2023-03-20T06:55:29;100517.78;;;9.30;59.64
65997;BME280;52765;52.258;21.052;2023-03-20T06:57:55;100515.06;;;9.50;59.12
65997;BME280;52765;52.258;21.052;2023-03-20T07:00:21;100520.81;;;9.65;58.65
65997;BME280;52765;52.258;21.052;2023-03-20T07:02:47;100518.78;;;9.76;57.81
65997;BME280;52765;52.258;21.052;2023-03-20T07:05:14;100525.09;;;9.95;56.66
65997;BME280;52765;52.258;21.052;2023-03-20T07:07:42;100518.09;;;10.02;56.62
65997;BME280;52765;52.258;21.052;2023-03-20T07:10:07;100522.34;;;10.05;56.12
65997;BME280;52765;52.258;21.052;2023-03-20T07:12:34;100515.69;;;9.99;56.17
65997;BME280;52765;52.258;21.052;2023-03-20T07:14:59;100520.66;;;10.04;56.32
65997;BME280;52765;52.258;21.052;2023-03-20T07:17:27;100523.19;;;10.05;56.11
65997;BME280;52765;52.258;21.052;2023-03-20T07:19:53;100521.75;;;10.11;56.31
65997;BME280;52765;52.258;21.052;2023-03-20T07:22:24;100518.31;;;10.18;55.85
65997;BME280;52765;52.258;21.052;2023-03-20T07:24:50;100515.31;;;10.22;55.91
65997;BME280;52765;52.258;21.052;2023-03-20T07:27:16;100517.56;;;10.26;55.58
65997;BME280;52765;52.258;21.052;2023-03-20T07:29:42;100514.44;;;10.31;55.42
65997;BME280;52765;52.258;21.052;2023-03-20T07:32:08;100523.75;;;10.36;55.63
65997;BME280;52765;52.258;21.052;2023-03-20T07:34:34;100517.22;;;10.39;55.22
65997;BME280;52765;52.258;21.052;2023-03-20T07:37:03;100513.38;;;10.42;55.40
65997;BME280;52765;52.258;21.052;2023-03-20T07:39:29;100521.69;;;10.48;55.12
65997;BME280;52765;52.258;21.052;2023-03-20T07:41:55;100517.38;;;10.55;55.20
65997;BME280;52765;52.258;21.052;2023-03-20T07:44:20;100518.34;;;10.64;55.02
65997;BME280;52765;52.258;21.052;2023-03-20T07:46:46;100524.13;;;10.69;54.88
65997;BME280;52765;52.258;21.052;2023-03-20T07:49:12;100518.56;;;10.71;54.59
65997;BME280;52765;52.258;21.052;2023-03-20T07:51:38;100510.22;;;10.82;54.46
65997;BME280;52765;52.258;21.052;2023-03-20T07:54:04;100510.69;;;10.96;54.25
65997;BME280;52765;52.258;21.052;2023-03-20T07:56:29;100513.16;;;11.07;54.11
65997;BME280;52765;52.258;21.052;2023-03-20T07:58:55;100514.03;;;11.16;53.72
65997;BME280;52765;52.258;21.052;2023-03-20T08:01:23;100506.88;;;11.24;53.61
65997;BME280;52765;52.258;21.052;2023-03-20T08:03:48;100508.47;;;11.35;53.30
65997;BME280;52765;52.258;21.052;2023-03-20T08:06:16;100510.84;;;11.38;52.92
65997;BME280;52765;52.258;21.052;2023-03-20T08:08:41;100509.69;;;11.41;52.94
65997;BME280;52765;52.258;21.052;2023-03-20T08:11:07;100503.28;;;11.42;52.98
65997;BME280;52765;52.258;21.052;2023-03-20T08:13:32;100505.34;;;11.48;52.78
65997;BME280;52765;52.258;21.052;2023-03-20T08:15:58;100506.41;;;11.55;52.43
65997;BME280;52765;52.258;21.052;2023-03-20T08:18:23;100506.28;;;11.65;52.30
65997;BME280;52765;52.258;21.052;2023-03-20T08:20:49;100515.44;;;11.72;52.12
65997;BME280;52765;52.258;21.052;2023-03-20T08:23:16;100508.88;;;11.75;51.97
65997;BME280;52765;52.258;21.052;2023-03-20T08:25:46;100516.50;;;11.79;51.67
65997;BME280;52765;52.258;21.052;2023-03-20T08:28:11;100516.34;;;11.81;51.59
65997;BME280;52765;52.258;21.052;2023-03-20T08:30:37;100504.53;;;11.82;51.41
65997;BME280;52765;52.258;21.052;2023-03-20T08:33:02;100510.28;;;11.87;51.27
65997;BME280;52765;52.258;21.052;2023-03-20T08:35:27;100515.06;;;11.93;51.02
65997;BME280;52765;52.258;21.052;2023-03-20T08:37:53;100514.59;;;11.98;51.22
65997;BME280;52765;52.258;21.052;2023-03-20T08:40:19;100516.66;;;12.04;50.74
65997;BME280;52765;52.258;21.052;2023-03-20T08:42:45;100513.75;;;12.06;50.54
65997;BME280;52765;52.258;21.052;2023-03-20T08:45:10;100516.34;;;12.15;50.38
65997;BME280;52765;52.258;21.052;2023-03-20T08:47:36;100511.66;;;12.34;50.23
65997;BME280;52765;52.258;21.052;2023-03-20T08:50:02;100510.38;;;12.54;49.87
65997;BME280;52765;52.258;21.052;2023-03-20T08:52:27;100510.59;;;12.69;49.38
65997;BME280;52765;52.258;21.052;2023-03-20T08:54:53;100508.56;;;12.88;49.04
65997;BME280;52765;52.258;21.052;2023-03-20T08:57:18;100509.59;;;13.11;48.65
65997;BME280;52765;52.258;21.052;2023-03-20T08:59:43;100512.78;;;13.07;48.38
65997;BME280;52765;52.258;21.052;2023-03-20T09:02:12;100505.53;;;13.16;47.99
65997;BME280;52765;52.258;21.052;2023-03-20T09:04:37;100507.38;;;13.23;47.98
65997;BME280;52765;52.258;21.052;2023-03-20T09:07:03;100517.22;;;13.32;47.59
65997;BME280;52765;52.258;21.052;2023-03-20T09:09:29;100508.38;;;13.30;47.03
65997;BME280;52765;52.258;21.052;2023-03-20T09:11:55;100509.94;;;13.41;46.90
65997;BME280;52765;52.258;21.052;2023-03-20T09:14:25;100512.78;;;13.48;46.54
65997;BME280;52765;52.258;21.052;2023-03-20T09:16:51;100515.50;;;13.40;46.70
65997;BME280;52765;52.258;21.052;2023-03-20T09:19:17;100507.56;;;13.38;46.83
65997;BME280;52765;52.258;21.052;2023-03-20T09:21:43;100505.00;;;13.20;47.20
65997;BME280;52765;52.258;21.052;2023-03-20T09:24:08;100510.91;;;13.24;47.09
65997;BME280;52765;52.258;21.052;2023-03-20T09:26:34;100509.44;;;13.38;46.93
65997;BME280;52765;52.258;21.052;2023-03-20T09:28:59;100508.88;;;13.50;46.36
65997;BME280;52765;52.258;21.052;2023-03-20T09:31:25;100504.09;;;13.77;45.84
65997;BME280;52765;52.258;21.052;2023-03-20T09:33:50;100498.84;;;14.15;45.08
65997;BME280;52765;52.258;21.052;2023-03-20T09:36:16;100506.94;;;14.23;44.61
65997;BME280;52765;52.258;21.052;2023-03-20T09:38:41;100500.66;;;14.31;44.41
65997;BME280;52765;52.258;21.052;2023-03-20T09:41:16;100487.41;;;14.36;44.21
65997;BME280;52765;52.258;21.052;2023-03-20T09:52:25;100488.16;;;14.53;44.00
65997;BME280;52765;52.258;21.052;2023-03-20T09:54:54;100498.03;;;14.46;43.79
65997;BME280;52765;52.258;21.052;2023-03-20T09:57:46;100487.88;;;14.40;43.98
65997;BME280;52765;52.258;21.052;2023-03-20T10:00:18;100496.03;;;14.40;43.80
65997;BME280;52765;52.258;21.052;2023-03-20T10:02:55;100491.25;;;14.42;43.83
65997;BME280;52765;52.258;21.052;2023-03-20T10:07:53;100490.19;;;14.59;43.24
65997;BME280;52765;52.258;21.052;2023-03-20T10:10:26;100495.72;;;14.66;43.49
65997;BME280;52765;52.258;21.052;2023-03-20T10:18:37;100489.81;;;15.09;43.49
65997;BME280;52765;52.258;21.052;2023-03-20T10:21:16;100488.03;;;15.16;43.58
65997;BME280;52765;52.258;21.052;2023-03-20T10:23:51;100493.09;;;15.19;43.74
65997;BME280;52765;52.258;21.052;2023-03-20T10:26:21;100491.47;;;15.10;43.75
65997;BME280;52765;52.258;21.052;2023-03-20T10:28:51;100485.75;;;15.05;44.22
65997;BME280;52765;52.258;21.052;2023-03-20T10:34:23;100492.78;;;14.99;43.59
65997;BME280;52765;52.258;21.052;2023-03-20T10:37:09;100501.56;;;15.01;43.96
65997;BME280;52765;52.258;21.052;2023-03-20T10:42:40;100492.16;;;14.89;44.90
65997;BME280;52765;52.258;21.052;2023-03-20T10:45:30;100495.91;;;14.88;45.47
65997;BME280;52765;52.258;21.052;2023-03-20T10:48:03;100492.41;;;14.79;46.07
65997;BME280;52765;52.258;21.052;2023-03-20T10:50:36;100492.41;;;14.79;46.38
65997;BME280;52765;52.258;21.052;2023-03-20T10:53:05;100493.19;;;14.65;47.15
65997;BME280;52765;52.258;21.052;2023-03-20T10:55:36;100491.69;;;14.85;47.57
65997;BME280;52765;52.258;21.052;2023-03-20T10:58:20;100490.19;;;14.83;47.73
65997;BME280;52765;52.258;21.052;2023-03-20T11:00:47;100480.81;;;14.85;48.11
65997;BME280;52765;52.258;21.052;2023-03-20T11:03:27;100486.72;;;14.89;48.37
65997;BME280;52765;52.258;21.052;2023-03-20T11:06:04;100479.88;;;14.78;49.36
65997;BME280;52765;52.258;21.052;2023-03-20T11:08:36;100476.44;;;14.61;50.59
65997;BME280;52765;52.258;21.052;2023-03-20T11:11:03;100487.22;;;14.69;49.15
65997;BME280;52765;52.258;21.052;2023-03-20T11:13:33;100468.66;;;14.81;48.56
65997;BME280;52765;52.258;21.052;2023-03-20T11:18:40;100464.94;;;15.35;46.59
65997;BME280;52765;52.258;21.052;2023-03-20T11:21:09;100469.09;;;15.46;46.02
65997;BME280;52765;52.258;21.052;2023-03-20T11:23:38;100465.06;;;15.57;46.06
65997;BME280;52765;52.258;21.052;2023-03-20T11:26:06;100463.00;;;15.73;45.87
65997;BME280;52765;52.258;21.052;2023-03-20T11:28:37;100471.81;;;15.61;46.41
65997;BME280;52765;52.258;21.052;2023-03-20T11:33:37;100453.72;;;15.23;47.57
65997;BME280;52765;52.258;21.052;2023-03-20T11:36:11;100448.34;;;15.15;48.00
65997;BME280;52765;52.258;21.052;2023-03-20T11:38:43;100442.94;;;15.15;48.37
65997;BME280;52765;52.258;21.052;2023-03-20T11:41:27;100441.66;;;15.56;47.74
65997;BME280;52765;52.258;21.052;2023-03-20T11:43:53;100448.50;;;15.96;46.92
65997;BME280;52765;52.258;21.052;2023-03-20T11:46:20;100447.78;;;16.24;45.94
65997;BME280;52765;52.258;21.052;2023-03-20T11:49:01;100438.41;;;16.26;46.53
65997;BME280;52765;52.258;21.052;2023-03-20T11:51:28;100427.78;;;16.32;46.09
65997;BME280;52765;52.258;21.052;2023-03-20T11:54:01;100434.28;;;16.31;46.13
65997;BME280;52765;52.258;21.052;2023-03-20T11:56:30;100434.00;;;16.25;46.08
65997;BME280;52765;52.258;21.052;2023-03-20T11:59:17;100437.84;;;16.53;45.74
65997;BME280;52765;52.258;21.052;2023-03-20T12:01:46;100435.00;;;16.39;45.75
65997;BME280;52765;52.258;21.052;2023-03-20T12:14:44;100421.72;;;16.73;45.40
65997;BME280;52765;52.258;21.052;2023-03-20T12:17:31;100426.31;;;16.72;45.57
65997;BME280;52765;52.258;21.052;2023-03-20T12:20:06;100419.06;;;16.58;45.68
65997;BME280;52765;52.258;21.052;2023-03-20T12:22:41;100415.69;;;16.56;45.59
65997;BME280;52765;52.258;21.052;2023-03-20T12:25:24;100425.50;;;16.35;45.83
65997;BME280;52765;52.258;21.052;2023-03-20T12:28:25;100424.22;;;16.31;45.81
65997;BME280;52765;52.258;21.052;2023-03-20T12:31:03;100421.91;;;16.50;45.28
65997;BME280;52765;52.258;21.052;2023-03-20T12:36:19;100415.59;;;17.14;43.29
65997;BME280;52765;52.258;21.052;2023-03-20T12:38:48;100413.66;;;17.08;43.62
65997;BME280;52765;52.258;21.052;2023-03-20T12:41:29;100415.25;;;17.24;42.85
65997;BME280;52765;52.258;21.052;2023-03-20T12:44:17;100409.84;;;17.30;42.47
65997;BME280;52765;52.258;21.052;2023-03-20T12:46:53;100419.09;;;17.36;42.92
65997;BME280;52765;52.258;21.052;2023-03-20T12:52:34;100412.66;;;17.44;43.17
65997;BME280;52765;52.258;21.052;2023-03-20T12:58:15;100414.38;;;16.73;44.70
65997;BME280;52765;52.258;21.052;2023-03-20T13:03:28;100432.41;;;15.80;46.63
65997;BME280;52765;52.258;21.052;2023-03-20T13:06:31;100424.25;;;15.50;47.35
65997;BME280;52765;52.258;21.052;2023-03-20T13:23:30;100404.56;;;15.18;49.83
65997;BME280;52765;52.258;21.052;2023-03-20T13:37:20;100407.22;;;15.86;51.08
65997;BME280;52765;52.258;21.052;2023-03-20T13:42:21;100404.41;;;15.64;52.29
65997;BME280;52765;52.258;21.052;2023-03-20T13:44:48;100407.03;;;15.43;53.16
65997;BME280;52765;52.258;21.052;2023-03-20T13:47:22;100396.69;;;15.08;55.09
65997;BME280;52765;52.258;21.052;2023-03-20T13:52:43;100396.72;;;14.70;57.27
65997;BME280;52765;52.258;21.052;2023-03-20T13:55:29;100399.50;;;14.62;58.69
65997;BME280;52765;52.258;21.052;2023-03-20T14:00:51;100404.97;;;14.31;61.59
65997;BME280;52765;52.258;21.052;2023-03-20T14:03:30;100404.72;;;14.17;64.04
65997;BME280;52765;52.258;21.052;2023-03-20T14:05:57;100407.47;;;14.09;66.37
65997;BME280;52765;52.258;21.052;2023-03-20T14:13:22;100405.94;;;13.75;73.37
65997;BME280;52765;52.258;21.052;2023-03-20T14:15:55;100403.38;;;13.82;73.82
65997;BME280;52765;52.258;21.052;2023-03-20T14:18:23;100406.16;;;13.65;75.68
65997;BME280;52765;52.258;21.052;2023-03-20T14:20:57;100400.41;;;13.68;76.66
65997;BME280;52765;52.258;21.052;2023-03-20T14:24:04;100406.94;;;13.82;76.26
65997;BME280;52765;52.258;21.052;2023-03-20T14:26:34;100405.56;;;13.86;75.90
65997;BME280;52765;52.258;21.052;2023-03-20T14:29:39;100400.97;;;13.87;76.98
65997;BME280;52765;52.258;21.052;2023-03-20T14:37:36;100409.25;;;13.94;77.12
65997;BME280;52765;52.258;21.052;2023-03-20T14:40:05;100405.03;;;13.91;76.91
65997;BME280;52765;52.258;21.052;2023-03-20T14:42:50;100410.75;;;13.96;77.28
65997;BME280;52765;52.258;21.052;2023-03-20T14:45:42;100406.91;;;13.91;78.01
65997;BME280;52765;52.258;21.052;2023-03-20T14:48:30;100408.97;;;13.80;79.03
65997;BME280;52765;52.258;21.052;2023-03-20T14:53:38;100414.88;;;13.28;79.58
65997;BME280;52765;52.258;21.052;2023-03-20T14:56:07;100417.63;;;13.20;80.71
65997;BME280;52765;52.258;21.052;2023-03-20T15:06:52;100412.75;;;12.99;83.97
65997;BME280;52765;52.258;21.052;2023-03-20T15:09:23;100411.91;;;12.98;84.51
65997;BME280;52765;52.258;21.052;2023-03-20T15:11:51;100416.97;;;13.09;84.78
65997;BME280;52765;52.258;21.052;2023-03-20T15:14:27;100424.19;;;13.17;86.03
65997;BME280;52765;52.258;21.052;2023-03-20T15:17:01;100411.88;;;13.06;91.18
65997;BME280;52765;52.258;21.052;2023-03-20T15:19:28;100423.88;;;12.95;94.02
65997;BME280;52765;52.258;21.052;2023-03-20T15:21:54;100425.25;;;12.75;96.45
65997;BME280;52765;52.258;21.052;2023-03-20T15:24:22;100423.94;;;12.63;97.48
65997;BME280;52765;52.258;21.052;2023-03-20T15:26:53;100424.44;;;12.66;97.32
65997;BME280;52765;52.258;21.052;2023-03-20T15:29:22;100423.22;;;12.61;97.68